Time;durP1;ratioP1;P1;durP2;ratioP2;P2;SDS_P1;SDS_P2;PMS_P1;PMS_P2;Temp;Humidity;BMP_temperature;BMP_pressure;BME280_temperature;BME280_humidity;BME280_pressure;Samples;Min_cycle;Max_cycle;Signal;HPM_P1;HPM_P2
2021/07/01 00:00:12;;;;;;;0.30;0.30;;;;;;;12.64;90.05;96424.53;5131292;27;20338;-73
2021/07/01 00:02:49;;;;;;;0.57;0.38;;;;;;;12.65;90.11;96420.84;5070644;28;20383;-73
2021/07/01 00:05:26;;;;;;;0.30;0.30;;;;;;;12.64;89.68;96423.69;5070236;28;20762;-72
2021/07/01 00:08:03;;;;;;;0.63;0.40;;;;;;;12.61;89.47;96426.81;5131376;27;20375;-72
2021/07/01 00:10:40;;;;;;;0.30;0.30;;;;;;;12.50;89.23;96421.31;5070062;28;20388;-72
2021/07/01 00:13:18;;;;;;;0.20;0.20;;;;;;;12.43;89.33;96415.41;5070581;28;20383;-72
2021/07/01 00:15:56;;;;;;;0.20;0.20;;;;;;;12.46;89.81;96417.56;5070343;28;20389;-73
2021/07/01 00:18:32;;;;;;;0.20;0.20;;;;;;;12.46;89.84;96420.19;5070146;28;20754;-73
2021/07/01 00:21:10;;;;;;;1.95;0.30;;;;;;;12.46;89.89;96422.81;5109136;27;20449;-73
2021/07/01 00:23:48;;;;;;;0.30;0.30;;;;;;;12.36;89.39;96423.38;5111104;27;20117;-73
2021/07/01 00:26:26;;;;;;;0.63;0.30;;;;;;;12.34;89.79;96414.91;5111052;27;20121;-73
2021/07/01 00:29:05;;;;;;;0.50;0.30;;;;;;;12.31;89.91;96412.75;5123958;27;20202;-73
2021/07/01 00:31:42;;;;;;;0.35;0.35;;;;;;;12.34;90.12;96414.13;5090669;28;20121;-73
2021/07/01 00:34:21;;;;;;;0.82;0.40;;;;;;;12.31;89.98;96418.03;5151907;27;20119;-73
2021/07/01 00:36:59;;;;;;;0.20;0.20;;;;;;;12.35;90.42;96421.00;5110813;27;20121;-74
2021/07/01 00:39:37;;;;;;;0.30;0.30;;;;;;;12.38;90.25;96425.78;5110726;27;20116;-74
2021/07/01 00:42:16;;;;;;;0.73;0.17;;;;;;;12.41;90.68;96424.53;5070145;28;20385;-74
2021/07/01 00:44:53;;;;;;;0.10;0.10;;;;;;;12.44;90.20;96418.81;5131326;27;20612;-74
2021/07/01 00:47:32;;;;;;;0.30;0.30;;;;;;;12.45;90.27;96423.03;5131527;27;20120;-74
2021/07/01 00:50:12;;;;;;;0.70;0.25;;;;;;;12.48;90.42;96430.47;5110980;27;20148;-76
2021/07/01 00:52:49;;;;;;;0.57;0.20;;;;;;;12.52;90.32;96421.09;5110914;27;20422;-74
2021/07/01 00:55:26;;;;;;;0.30;0.30;;;;;;;12.49;89.87;96424.19;5070527;28;20382;-74
2021/07/01 00:58:01;;;;;;;0.30;0.30;;;;;;;12.49;89.94;96422.34;5087780;27;1277299;-75
2021/07/01 01:03:21;;;;;;;0.30;0.10;;;;;;;12.52;89.96;96408.75;5070709;28;20393;-75
2021/07/01 01:05:59;;;;;;;1.65;0.40;;;;;;;12.54;90.12;96409.31;5110913;27;20336;-74
2021/07/01 01:08:37;;;;;;;0.90;0.20;;;;;;;12.54;90.03;96404.06;5110715;27;20120;-74
2021/07/01 01:11:16;;;;;;;0.73;0.20;;;;;;;12.56;89.91;96407.25;5090494;28;20758;-75
2021/07/01 01:13:55;;;;;;;0.30;0.30;;;;;;;12.57;89.95;96406.22;5111222;27;20339;-73
2021/07/01 01:16:33;;;;;;;1.38;0.28;;;;;;;12.58;89.96;96399.13;5070332;28;20750;-73
2021/07/01 01:19:10;;;;;;;0.85;0.40;;;;;;;12.61;90.04;96405.75;5131097;27;20374;-74
2021/07/01 01:21:48;;;;;;;2.80;0.30;;;;;;;12.56;90.06;96412.50;5131247;27;20375;-75
2021/07/01 01:24:24;;;;;;;0.20;0.20;;;;;;;12.56;90.15;96411.72;5070338;28;20383;-74
2021/07/01 01:27:01;;;;;;;0.32;0.20;;;;;;;12.56;90.05;96411.72;5110919;27;20427;-76
2021/07/01 01:29:37;;;;;;;0.57;0.30;;;;;;;12.54;90.11;96413.78;5090809;28;20377;-75
2021/07/01 01:32:14;;;;;;;0.98;0.30;;;;;;;12.55;90.30;96408.28;5070232;28;20379;-74
2021/07/01 01:34:51;;;;;;;1.20;0.38;;;;;;;12.55;89.89;96408.28;5070082;28;20381;-74
2021/07/01 01:37:29;;;;;;;0.30;0.30;;;;;;;12.53;90.04;96412.97;5110787;27;20120;-74
2021/07/01 01:40:06;;;;;;;0.30;0.30;;;;;;;12.53;90.06;96412.97;5070298;28;20736;-75
2021/07/01 01:42:45;;;;;;;0.30;0.25;;;;;;;12.54;90.62;96405.88;5090895;27;20378;-74
2021/07/01 01:45:23;;;;;;;0.40;0.22;;;;;;;12.57;90.37;96411.47;5070546;28;20383;-73
2021/07/01 01:48:01;;;;;;;0.45;0.22;;;;;;;12.61;90.67;96413.66;5131364;27;20345;-73
2021/07/01 01:50:40;;;;;;;0.30;0.30;;;;;;;12.63;90.45;96409.75;5131211;27;20127;-73
2021/07/01 01:53:17;;;;;;;0.40;0.22;;;;;;;12.64;90.21;96414.00;5131729;27;20124;-73
2021/07/01 01:55:55;;;;;;;0.57;0.40;;;;;;;12.66;90.31;96408.50;5090432;28;20118;-74
2021/07/01 01:58:34;;;;;;;0.32;0.32;;;;;;;12.68;90.01;96409.06;5090411;28;20141;-74
2021/07/01 02:01:12;;;;;;;0.90;0.30;;;;;;;12.69;90.26;96411.47;5131217;27;20116;-74
2021/07/01 02:03:51;;;;;;;0.68;0.40;;;;;;;12.68;90.34;96407.25;5131188;27;20374;-73
2021/07/01 02:06:30;;;;;;;0.30;0.30;;;;;;;12.69;90.19;96408.03;5131130;27;20229;-73
2021/07/01 02:09:08;;;;;;;0.20;0.20;;;;;;;12.70;90.04;96413.03;5069913;28;20879;-73
2021/07/01 02:11:47;;;;;;;0.45;0.30;;;;;;;12.70;90.37;96410.41;5110834;27;20339;-73
2021/07/01 02:14:25;;;;;;;0.30;0.30;;;;;;;12.69;90.26;96406.19;5110794;27;20121;-73
2021/07/01 02:17:03;;;;;;;0.40;0.30;;;;;;;12.70;90.17;96410.41;5090478;28;20129;-74
2021/07/01 02:19:41;;;;;;;0.35;0.35;;;;;;;12.70;90.39;96413.03;5128366;27;20189;-73
2021/07/01 02:22:19;;;;;;;0.35;0.35;;;;;;;12.69;90.35;96416.72;5131321;27;20187;-73
2021/07/01 02:24:57;;;;;;;0.25;0.25;;;;;;;12.69;90.24;96413.31;5090509;28;20113;-74
2021/07/01 02:27:37;;;;;;;0.28;0.28;;;;;;;12.67;90.45;96413.53;5127747;27;20199;-75
2021/07/01 02:30:16;;;;;;;1.02;0.40;;;;;;;12.67;90.73;96423.25;5131267;27;20205;-74
2021/07/01 02:32:53;;;;;;;0.45;0.32;;;;;;;12.68;90.67;96419.56;5090474;27;20384;-73
2021/07/01 02:35:31;;;;;;;0.20;0.20;;;;;;;12.67;90.54;96426.69;5070551;28;20390;-74
2021/07/01 02:38:09;;;;;;;0.25;0.25;;;;;;;12.68;90.70;96424.84;5110656;27;20830;-74
2021/07/01 02:40:47;;;;;;;0.30;0.30;;;;;;;12.69;90.78;96424.63;5131156;27;20576;-72
2021/07/01 02:43:25;;;;;;;0.32;0.30;;;;;;;12.70;90.77;96428.03;5111083;27;20117;-73
2021/07/01 02:46:03;;;;;;;0.98;0.50;;;;;;;12.71;90.83;96427.81;5111120;27;20117;-74
2021/07/01 02:48:41;;;;;;;0.40;0.40;;;;;;;12.72;90.75;96425.97;5131772;27;20115;-75
2021/07/01 02:51:19;;;;;;;0.35;0.35;;;;;;;12.71;90.59;96427.03;5110741;27;20473;-74
2021/07/01 02:53:58;;;;;;;0.40;0.40;;;;;;;12.69;90.52;96423.81;5090790;28;20122;-75
2021/07/01 02:56:42;;;;;;;0.40;0.40;;;;;;;12.67;90.57;96436.41;5110861;27;20454;-75
2021/07/01 02:59:19;;;;;;;0.30;0.30;;;;;;;12.64;90.33;96432.41;5090601;28;20380;-75
2021/07/01 03:01:56;;;;;;;1.42;0.40;;;;;;;12.61;90.33;96432.06;5070645;28;20385;-75
2021/07/01 03:04:33;;;;;;;0.90;0.40;;;;;;;12.61;90.51;96432.06;5070345;28;20375;-75
2021/07/01 03:07:10;;;;;;;0.63;0.50;;;;;;;12.61;90.55;96432.06;5110543;27;20161;-75
2021/07/01 03:09:49;;;;;;;0.50;0.50;;;;;;;12.60;90.75;96439.16;5070690;28;20382;-75
2021/07/01 03:12:27;;;;;;;0.38;0.38;;;;;;;12.63;90.86;96432.63;5110797;27;20340;-75
2021/07/01 03:15:05;;;;;;;1.08;0.82;;;;;;;12.67;91.22;96429.31;5111223;27;20121;-75
2021/07/01 03:17:44;;;;;;;0.60;0.60;;;;;;;12.66;90.97;96427.72;5106691;27;20873;-75
2021/07/01 03:20:21;;;;;;;0.47;0.40;;;;;;;12.65;90.89;96426.09;5110701;27;20842;-77
2021/07/01 03:22:57;;;;;;;0.47;0.47;;;;;;;12.63;90.86;96425.53;5044360;27;1956342;-75
2021/07/01 03:25:34;;;;;;;0.52;0.52;;;;;;;12.64;90.96;96423.69;5070302;28;20386;-75
2021/07/01 03:28:11;;;;;;;0.90;0.60;;;;;;;12.66;91.19;96429.53;5107843;27;20152;-75
2021/07/01 03:30:49;;;;;;;0.60;0.57;;;;;;;12.67;91.19;96426.69;5131060;27;20176;-75
2021/07/01 03:33:28;;;;;;;0.50;0.50;;;;;;;12.68;91.11;96423.03;5131676;27;20142;-75
2021/07/01 03:36:07;;;;;;;0.50;0.50;;;;;;;12.67;91.22;96431.94;5090666;28;20126;-75
2021/07/01 03:38:45;;;;;;;1.02;0.70;;;;;;;12.65;91.21;96428.75;5069942;28;20750;-74
2021/07/01 03:41:21;;;;;;;0.50;0.50;;;;;;;12.68;91.37;96427.47;5070073;28;20383;-74
2021/07/01 03:43:58;;;;;;;0.60;0.60;;;;;;;12.67;91.24;96431.16;5070487;28;20047;-74
2021/07/01 03:46:39;;;;;;;0.60;0.60;;;;;;;12.66;91.43;96438.25;5110848;27;20116;-74
2021/07/01 03:49:16;;;;;;;0.80;0.80;;;;;;;12.66;91.40;96433.00;5070186;28;20449;-74
2021/07/01 03:51:53;;;;;;;0.57;0.50;;;;;;;12.66;91.64;96429.53;5070144;28;20059;-74
2021/07/01 03:54:29;;;;;;;0.75;0.75;;;;;;;12.64;91.57;96429.78;5070522;28;20382;-75
2021/07/01 03:57:08;;;;;;;0.60;0.60;;;;;;;12.59;91.61;96425.19;5110908;27;20120;-74
2021/07/01 03:59:44;;;;;;;0.80;0.80;;;;;;;12.61;91.92;96432.88;5070640;28;20413;-74
2021/07/01 04:02:21;;;;;;;0.60;0.60;;;;;;;12.59;91.89;96434.91;5070539;28;20390;-74
2021/07/01 04:04:58;;;;;;;0.80;0.80;;;;;;;12.58;91.86;96438.59;5109980;27;20924;-74
2021/07/01 04:07:37;;;;;;;1.20;0.80;;;;;;;12.59;92.05;96445.44;5110960;27;20132;-74
2021/07/01 04:10:17;;;;;;;0.90;0.90;;;;;;;12.61;92.37;96443.38;5070206;28;20394;-75
2021/07/01 04:12:53;;;;;;;0.98;0.98;;;;;;;12.61;92.00;96443.38;5131730;27;20375;-73
2021/07/01 04:15:31;;;;;;;1.02;0.90;;;;;;;12.57;92.08;96443.03;5101526;27;20401;-74
2021/07/01 04:18:11;;;;;;;0.90;0.90;;;;;;;12.59;92.54;96440.97;5110636;27;20143;-75
2021/07/01 04:20:49;;;;;;;1.05;1.05;;;;;;;12.65;92.50;96449.00;5070158;28;20917;-74
2021/07/01 04:23:27;;;;;;;0.90;0.90;;;;;;;12.65;92.37;96452.41;5090828;28;20884;-74
2021/07/01 04:26:05;;;;;;;1.00;0.90;;;;;;;12.55;91.82;96455.63;5090544;28;20348;-75
2021/07/01 04:28:43;;;;;;;1.00;1.00;;;;;;;12.49;92.25;96447.84;5131250;27;20176;-74
2021/07/01 04:31:22;;;;;;;1.08;1.00;;;;;;;12.50;92.67;96445.00;5131514;27;20116;-74
2021/07/01 04:34:02;;;;;;;0.90;0.90;;;;;;;12.50;92.71;96449.47;5111261;27;20117;-74
2021/07/01 04:36:39;;;;;;;0.98;0.82;;;;;;;12.53;92.86;96454.25;5070357;28;20385;-73
2021/07/01 04:39:17;;;;;;;0.90;0.90;;;;;;;12.59;93.06;96453.34;5111294;27;20511;-74
2021/07/01 04:41:55;;;;;;;0.90;0.90;;;;;;;12.64;92.97;96455.28;5110894;27;20120;-74
2021/07/01 04:44:32;;;;;;;0.70;0.70;;;;;;;12.65;92.91;96456.88;5095134;27;20404;-74
2021/07/01 04:47:09;;;;;;;1.02;1.02;;;;;;;12.68;92.96;96451.97;5070103;28;20751;-74
2021/07/01 04:49:45;;;;;;;1.00;1.00;;;;;;;12.68;92.98;96461.69;5070680;28;20390;-73
2021/07/01 04:52:23;;;;;;;0.73;0.73;;;;;;;12.87;96.11;96460.53;5110845;27;20568;-73
2021/07/01 04:55:01;;;;;;;1.10;1.00;;;;;;;13.06;94.04;96455.91;5110738;27;20391;-74
2021/07/01 04:57:39;;;;;;;0.90;0.90;;;;;;;13.08;92.80;96464.38;5118747;27;20180;-74
2021/07/01 05:00:18;;;;;;;1.88;1.02;;;;;;;13.05;92.60;96464.03;5090782;28;20141;-74
2021/07/01 05:02:56;;;;;;;1.05;0.90;;;;;;;13.04;92.42;96450.06;5110075;27;20394;-74
2021/07/01 05:05:33;;;;;;;1.10;1.00;;;;;;;13.06;92.62;96455.91;5131620;27;20375;-74
2021/07/01 05:08:11;;;;;;;1.02;0.90;;;;;;;13.07;92.79;96457.50;5131137;27;20112;-73
2021/07/01 05:10:48;;;;;;;1.08;0.85;;;;;;;13.10;92.59;96462.31;5131491;27;20379;-74
2021/07/01 05:13:24;;;;;;;0.70;0.70;;;;;;;13.06;92.54;96463.81;5070627;28;20906;-74
2021/07/01 05:16:01;;;;;;;0.77;0.77;;;;;;;12.96;91.98;96461.75;5070572;28;20385;-74
2021/07/01 05:18:37;;;;;;;0.80;0.80;;;;;;;12.90;92.32;96459.25;5070216;28;20777;-74
2021/07/01 05:21:16;;;;;;;1.77;0.80;;;;;;;12.88;92.47;96459.47;5131324;27;20598;-74
2021/07/01 05:23:52;;;;;;;1.05;0.75;;;;;;;12.89;92.77;96455.84;5070510;28;20381;-73
2021/07/01 05:26:29;;;;;;;0.60;0.60;;;;;;;12.93;93.09;96458.78;5090437;27;20885;-73
2021/07/01 05:29:07;;;;;;;0.77;0.77;;;;;;;12.95;93.45;96451.44;5110695;27;20125;-74
2021/07/01 05:31:45;;;;;;;0.80;0.70;;;;;;;13.02;93.38;96460.03;5110974;27;20583;-73
2021/07/01 05:34:22;;;;;;;0.70;0.70;;;;;;;13.06;93.25;96453.28;5070651;28;20383;-73
2021/07/01 05:36:59;;;;;;;0.80;0.80;;;;;;;13.06;93.23;96461.16;5110621;27;20823;-73
2021/07/01 05:39:38;;;;;;;0.70;0.70;;;;;;;13.07;92.85;96464.59;5111018;27;20117;-72
2021/07/01 05:42:16;;;;;;;1.30;0.50;;;;;;;13.06;92.69;96466.44;5110710;27;20120;-74
2021/07/01 05:44:54;;;;;;;1.58;0.85;;;;;;;13.06;92.81;96462.97;5131284;27;20622;-74
2021/07/01 05:47:34;;;;;;;0.60;0.60;;;;;;;13.08;92.89;96467.00;5131245;27;20116;-74
2021/07/01 05:50:12;;;;;;;1.00;0.50;;;;;;;13.12;93.05;96472.59;5070509;28;20382;-74
2021/07/01 05:52:54;;;;;;;0.60;0.60;;;;;;;13.15;93.22;96472.13;5131795;27;20379;-74
2021/07/01 05:55:31;;;;;;;0.70;0.70;;;;;;;13.17;92.70;96468.22;5070270;28;20370;-73
2021/07/01 05:58:08;;;;;;;0.63;0.63;;;;;;;13.19;92.57;96465.38;5070418;28;20386;-74
2021/07/01 06:00:46;;;;;;;0.63;0.60;;;;;;;13.20;92.65;96465.13;5110741;27;20117;-74
2021/07/01 06:03:23;;;;;;;0.60;0.60;;;;;;;13.23;92.66;96474.41;5105820;27;20481;-74
2021/07/01 06:06:09;;;;;;;1.20;1.10;;;;;;;13.25;92.12;96474.16;5131571;27;20120;-74
2021/07/01 06:09:01;;;;;;;0.60;0.60;;;;;;;13.25;91.64;96477.59;5070860;28;20378;-74
2021/07/01 06:11:39;;;;;;;0.88;0.80;;;;;;;13.27;92.09;96480.81;5070255;28;20393;-73
2021/07/01 06:14:19;;;;;;;0.93;0.60;;;;;;;13.32;92.22;96473.03;5100832;27;20373;-73
2021/07/01 06:16:59;;;;;;;0.90;0.77;;;;;;;13.40;92.37;96479.75;5070258;28;20389;-73
2021/07/01 06:19:37;;;;;;;0.70;0.70;;;;;;;13.45;92.13;96485.09;5107689;27;21096;-74
2021/07/01 06:22:18;;;;;;;0.85;0.68;;;;;;;13.50;91.99;96487.03;5131805;27;20123;-74
2021/07/01 06:24:55;;;;;;;0.90;0.90;;;;;;;13.53;91.67;96481.31;5131401;27;20387;-74
2021/07/01 06:27:39;;;;;;;1.10;1.05;;;;;;;13.56;91.46;96486.09;5070572;28;20726;-74
2021/07/01 06:30:20;;;;;;;0.98;0.98;;;;;;;13.61;91.74;96483.56;5131364;27;20359;-74
2021/07/01 06:32:58;;;;;;;0.93;0.90;;;;;;;13.67;91.56;96484.44;5070569;28;20369;-74
2021/07/01 06:35:36;;;;;;;1.15;1.10;;;;;;;13.69;91.17;96479.75;5070020;28;20415;-74
2021/07/01 06:38:16;;;;;;;1.17;0.90;;;;;;;13.71;91.09;96482.94;5131449;27;20342;-74
2021/07/01 06:40:54;;;;;;;1.00;1.00;;;;;;;13.73;91.24;96479.06;5090475;28;20378;-74
2021/07/01 06:43:31;;;;;;;0.90;0.90;;;;;;;13.78;91.40;96480.97;5070397;28;20386;-74
2021/07/01 06:46:08;;;;;;;1.00;1.00;;;;;;;13.81;91.33;96478.63;5090369;27;20915;-74
2021/07/01 06:48:47;;;;;;;1.55;1.10;;;;;;;13.83;90.84;96485.53;5070289;28;20385;-75
2021/07/01 06:51:25;;;;;;;1.20;1.20;;;;;;;13.85;91.03;96483.44;5110655;27;20399;-73
2021/07/01 06:54:03;;;;;;;1.33;1.10;;;;;;;13.86;90.48;96483.22;5111025;27;20124;-74
2021/07/01 06:56:42;;;;;;;1.40;1.30;;;;;;;13.85;90.58;96486.09;5110727;27;20121;-74
2021/07/01 06:59:21;;;;;;;1.75;1.48;;;;;;;13.80;90.27;96490.22;5070147;28;20907;-73
2021/07/01 07:01:58;;;;;;;1.42;1.33;;;;;;;13.83;90.94;96496.06;5131437;27;20345;-73
2021/07/01 07:04:36;;;;;;;2.17;1.30;;;;;;;13.86;90.69;96495.59;5131587;27;20116;-73
2021/07/01 07:07:14;;;;;;;1.00;1.00;;;;;;;13.90;90.92;96499.34;5131394;27;20119;-74
2021/07/01 07:09:54;;;;;;;0.95;0.95;;;;;;;13.92;90.91;96490.19;5110848;27;20435;-74
2021/07/01 07:12:31;;;;;;;1.30;1.20;;;;;;;13.93;90.53;96494.41;5070458;28;20385;-73
2021/07/01 07:15:11;;;;;;;1.10;1.10;;;;;;;13.95;90.25;96499.44;5131393;27;20371;-74
2021/07/01 07:17:51;;;;;;;0.93;0.93;;;;;;;13.96;90.20;96493.94;5104601;27;20469;-73
2021/07/01 07:20:30;;;;;;;0.90;0.90;;;;;;;13.96;90.08;96501.84;5070012;28;20371;-73
2021/07/01 07:23:10;;;;;;;1.27;1.17;;;;;;;13.95;89.66;96499.44;5070698;28;20378;-74
2021/07/01 07:25:49;;;;;;;1.20;1.10;;;;;;;13.96;89.81;96499.22;5090548;27;20384;-74
2021/07/01 07:28:27;;;;;;;0.80;0.80;;;;;;;14.02;90.11;96502.72;5090594;28;20753;-73
2021/07/01 07:31:05;;;;;;;0.98;0.95;;;;;;;14.06;89.82;96497.78;5131620;27;20346;-74
2021/07/01 07:33:43;;;;;;;0.90;0.90;;;;;;;14.09;89.60;96503.38;5131729;27;20120;-74
2021/07/01 07:36:23;;;;;;;0.90;0.90;;;;;;;14.13;89.16;96501.06;5131699;27;20127;-73
2021/07/01 07:39:02;;;;;;;1.27;1.20;;;;;;;14.14;89.08;96513.22;5108397;27;20478;-73
2021/07/01 07:41:41;;;;;;;1.25;1.25;;;;;;;14.15;89.29;96512.97;5070681;28;20385;-73
2021/07/01 07:44:18;;;;;;;1.02;1.02;;;;;;;14.12;88.90;96507.38;5070651;28;20390;-74
2021/07/01 07:46:57;;;;;;;1.10;1.08;;;;;;;14.09;88.82;96507.84;5131353;27;20379;-73
2021/07/01 07:49:34;;;;;;;1.20;1.20;;;;;;;14.14;89.18;96510.56;5070635;28;20375;-73
2021/07/01 07:52:12;;;;;;;1.23;1.20;;;;;;;14.15;88.75;96517.44;5090893;28;20377;-73
2021/07/01 07:54:54;;;;;;;1.00;1.00;;;;;;;14.18;88.83;96512.50;5090528;28;20381;-74
2021/07/01 07:57:33;;;;;;;1.00;1.00;;;;;;;14.23;88.81;96509.13;5107239;27;20446;-74
2021/07/01 08:00:11;;;;;;;1.10;1.10;;;;;;;14.27;88.75;96504.19;5070313;28;20405;-74
2021/07/01 08:03:00;;;;;;;1.38;1.08;;;;;;;14.25;88.53;96509.69;5131611;27;20367;-73
2021/07/01 08:05:39;;;;;;;1.02;1.02;;;;;;;14.23;88.26;96508.34;5091192;28;20392;-74
2021/07/01 08:08:17;;;;;;;0.98;0.98;;;;;;;14.23;88.46;96506.50;5091042;27;20387;-73
2021/07/01 08:10:55;;;;;;;1.00;1.00;;;;;;;14.19;88.13;96508.84;5131375;27;20378;-73
2021/07/01 08:13:34;;;;;;;1.02;0.98;;;;;;;14.17;88.33;96505.63;5131387;27;20406;-74
2021/07/01 08:16:12;;;;;;;0.80;0.80;;;;;;;14.19;88.43;96510.66;5110696;27;20456;-73
2021/07/01 08:18:50;;;;;;;0.90;0.90;;;;;;;14.18;88.32;96504.56;5131362;27;20116;-73
2021/07/01 08:21:28;;;;;;;1.25;0.93;;;;;;;14.22;88.46;96507.53;5131612;27;20120;-73
2021/07/01 08:24:08;;;;;;;0.80;0.80;;;;;;;14.24;88.13;96510.75;5131471;27;20474;-74
2021/07/01 08:26:45;;;;;;;0.60;0.60;;;;;;;14.26;87.66;96513.13;5110702;27;20372;-74
2021/07/01 08:29:23;;;;;;;1.60;1.10;;;;;;;14.26;87.96;96511.31;5131582;27;20886;-74
2021/07/01 08:32:06;;;;;;;0.80;0.80;;;;;;;14.23;87.63;96513.63;5110662;27;20456;-73
2021/07/01 08:34:44;;;;;;;0.70;0.70;;;;;;;14.14;87.17;96507.94;5110749;27;20944;-73
2021/07/01 08:37:24;;;;;;;0.65;0.65;;;;;;;14.11;87.39;96511.03;5107497;27;20828;-74
2021/07/01 08:40:06;;;;;;;0.88;0.88;;;;;;;14.10;87.57;96504.97;5110674;27;20405;-73
2021/07/01 08:42:45;;;;;;;1.10;0.90;;;;;;;14.11;87.74;96514.50;5070267;28;20385;-73
2021/07/01 08:45:39;;;;;;;0.80;0.80;;;;;;;14.11;87.93;96506.59;5090774;27;20381;-73
2021/07/01 08:48:24;;;;;;;0.75;0.60;;;;;;;14.18;88.02;96509.06;5110809;27;20404;-73
2021/07/01 08:51:05;;;;;;;0.57;0.57;;;;;;;14.19;87.26;96508.00;5070341;28;20368;-74
2021/07/01 08:54:20;;;;;;;0.80;0.80;;;;;;;14.14;87.07;96500.81;5090590;28;20744;-73
2021/07/01 08:56:58;;;;;;;0.52;0.52;;;;;;;14.14;87.80;96514.00;5070236;28;20385;-74
2021/07/01 08:59:42;;;;;;;0.70;0.70;;;;;;;14.16;87.97;96521.69;5131685;27;20522;-74
2021/07/01 09:02:23;;;;;;;0.80;0.80;;;;;;;14.19;88.14;96526.47;5070291;28;20367;-73
2021/07/01 09:05:23;;;;;;;1.23;0.80;;;;;;;14.18;87.82;96517.75;5131313;27;20378;-73
2021/07/01 09:08:02;;;;;;;1.80;0.60;;;;;;;14.20;87.86;96520.97;5070169;28;20389;-74
2021/07/01 09:10:49;;;;;;;0.60;0.60;;;;;;;14.20;88.02;96522.81;5070690;28;20449;-73
2021/07/01 09:13:28;;;;;;;0.50;0.50;;;;;;;14.23;87.67;96526.81;5090523;27;20368;-74
2021/07/01 09:16:05;;;;;;;0.60;0.60;;;;;;;14.21;87.31;96521.75;5070306;28;20382;-73
2021/07/01 09:18:44;;;;;;;0.70;0.70;;;;;;;14.17;87.14;96532.00;5070186;28;20389;-73
2021/07/01 09:21:23;;;;;;;0.68;0.68;;;;;;;14.15;87.89;96530.63;5090815;27;20392;-73
2021/07/01 09:24:02;;;;;;;0.80;0.63;;;;;;;14.14;87.95;96531.69;5070229;28;20378;-74
2021/07/01 09:26:41;;;;;;;0.50;0.50;;;;;;;14.15;88.21;96535.91;5131205;27;20375;-73
2021/07/01 09:29:18;;;;;;;0.60;0.60;;;;;;;14.19;88.22;96537.03;5070446;28;20383;-74
2021/07/01 09:31:55;;;;;;;0.60;0.60;;;;;;;14.25;88.66;96532.63;5070176;28;20875;-73
2021/07/01 09:34:35;;;;;;;0.57;0.57;;;;;;;14.30;87.40;96530.06;5070312;28;20383;-73
2021/07/01 09:37:13;;;;;;;0.60;0.60;;;;;;;14.34;87.84;96529.38;5099160;27;20742;-74
2021/07/01 09:39:52;;;;;;;0.50;0.50;;;;;;;14.35;87.25;96536.25;5090478;27;20380;-74
2021/07/01 09:42:31;;;;;;;0.50;0.50;;;;;;;14.38;86.99;96530.50;5151635;27;20382;-75
2021/07/01 09:45:12;;;;;;;0.65;0.65;;;;;;;14.38;86.35;96538.41;5110500;27;20843;-73
2021/07/01 09:48:11;;;;;;;0.60;0.60;;;;;;;14.39;85.95;96544.47;5110557;27;20406;-74
2021/07/01 09:50:49;;;;;;;0.57;0.50;;;;;;;14.45;86.47;96540.06;5110846;27;20380;-74
2021/07/01 09:53:32;;;;;;;1.52;0.65;;;;;;;14.51;85.42;96536.47;5131436;27;20374;-73
2021/07/01 09:56:12;;;;;;;0.70;0.70;;;;;;;14.61;86.02;96536.66;5070235;28;20393;-74
2021/07/01 09:58:51;;;;;;;1.27;0.80;;;;;;;14.70;85.55;96540.50;5090857;27;20386;-74
2021/07/01 10:01:32;;;;;;;2.35;0.70;;;;;;;14.76;84.81;96539.56;5070523;28;20379;-74
2021/07/01 10:04:09;;;;;;;0.82;0.60;;;;;;;14.78;84.64;96540.09;5070068;28;20389;-74
2021/07/01 10:07:03;;;;;;;0.73;0.73;;;;;;;14.86;83.67;96535.44;5131710;27;20345;-74
2021/07/01 10:09:41;;;;;;;0.50;0.45;;;;;;;14.92;84.26;96529.19;5090595;27;20366;-74
2021/07/01 10:12:22;;;;;;;0.40;0.40;;;;;;;14.96;83.96;96535.59;5110570;27;20429;-74
2021/07/01 10:15:03;;;;;;;0.90;0.65;;;;;;;14.98;83.51;96536.94;5090820;28;20374;-75
2021/07/01 10:18:09;;;;;;;0.63;0.63;;;;;;;15.06;82.94;96527.00;5110680;27;20429;-73
2021/07/01 10:20:51;;;;;;;0.60;0.60;;;;;;;15.12;83.42;96531.28;5070245;28;20375;-74
2021/07/01 10:23:33;;;;;;;0.85;0.85;;;;;;;15.10;81.49;96525.44;5070288;28;20393;-74
2021/07/01 10:26:16;;;;;;;0.60;0.60;;;;;;;14.99;82.46;96532.44;5090627;27;20365;-74
2021/07/01 10:29:02;;;;;;;0.60;0.60;;;;;;;14.94;82.56;96537.69;5070265;28;20373;-74
2021/07/01 10:31:46;;;;;;;0.63;0.63;;;;;;;14.88;81.55;96534.16;5090725;27;20370;-74
2021/07/01 10:34:26;;;;;;;0.55;0.55;;;;;;;14.84;82.17;96540.16;5090666;27;20363;-73
2021/07/01 10:37:10;;;;;;;0.50;0.50;;;;;;;14.77;81.26;96530.56;5070313;28;20763;-74
2021/07/01 10:39:50;;;;;;;0.50;0.50;;;;;;;14.74;81.94;96540.81;5090789;27;20369;-74
2021/07/01 10:42:29;;;;;;;0.60;0.60;;;;;;;14.72;82.05;96529.69;5090284;27;20385;-74
2021/07/01 10:45:10;;;;;;;0.50;0.50;;;;;;;14.72;81.66;96527.06;5105795;27;20407;-73
2021/07/01 10:47:47;;;;;;;0.60;0.60;;;;;;;14.77;82.14;96529.78;5090215;28;20380;-75
2021/07/01 10:50:28;;;;;;;0.40;0.40;;;;;;;14.83;81.53;96536.72;5090815;27;20377;-74
2021/07/01 10:53:33;;;;;;;0.40;0.40;;;;;;;14.87;81.02;96532.56;5090328;27;20396;-74
2021/07/01 10:56:16;;;;;;;0.70;0.65;;;;;;;14.93;81.17;96536.88;5090512;27;20753;-74
2021/07/01 10:58:58;;;;;;;0.50;0.50;;;;;;;14.95;80.83;96539.25;5090567;27;20373;-74
2021/07/01 11:01:37;;;;;;;0.65;0.40;;;;;;;14.91;80.95;96538.97;5070546;28;20379;-74
2021/07/01 11:04:15;;;;;;;0.60;0.60;;;;;;;14.91;80.48;96544.25;5090518;27;20381;-73
2021/07/01 11:07:00;;;;;;;1.65;0.70;;;;;;;14.88;80.06;96543.91;5070686;28;20889;-74
2021/07/01 11:09:42;;;;;;;0.50;0.50;;;;;;;14.93;80.36;96552.72;5070349;28;20900;-74
2021/07/01 11:12:21;;;;;;;0.60;0.60;;;;;;;14.98;80.23;96544.88;5090797;27;20370;-74
2021/07/01 11:15:07;;;;;;;0.60;0.60;;;;;;;15.05;80.38;96554.44;5090696;27;20382;-74
2021/07/01 11:17:44;;;;;;;0.50;0.50;;;;;;;15.10;80.18;96546.59;5131350;27;20359;-74
2021/07/01 11:20:22;;;;;;;0.47;0.47;;;;;;;15.15;80.24;96551.94;5070342;28;20379;-74
2021/07/01 11:23:02;;;;;;;0.68;0.68;;;;;;;15.21;79.83;96561.53;5110704;27;20829;-74
2021/07/01 11:25:42;;;;;;;0.55;0.55;;;;;;;15.28;79.86;96550.78;5091154;27;20381;-73
2021/07/01 11:28:31;;;;;;;0.80;0.80;;;;;;;15.35;79.44;96551.41;5070473;28;20729;-75
2021/07/01 11:31:10;;;;;;;0.50;0.50;;;;;;;15.44;79.44;96547.31;5110466;27;20386;-77
2021/07/01 11:33:51;;;;;;;0.50;0.50;;;;;;;15.50;78.47;96551.59;5069398;27;1290749;-73
2021/07/01 11:36:29;;;;;;;0.40;0.40;;;;;;;15.53;79.01;96547.66;5070413;28;20371;-75
2021/07/01 11:39:15;;;;;;;0.60;0.60;;;;;;;15.60;77.41;96549.09;5070553;28;20389;-75
2021/07/01 11:41:51;;;;;;;0.60;0.60;;;;;;;15.64;78.80;96544.09;5068254;27;1306903;-75
2021/07/01 11:44:31;;;;;;;0.50;0.50;;;;;;;15.63;78.51;96547.78;5070268;28;20743;-74
2021/07/01 11:47:09;;;;;;;0.50;0.50;;;;;;;15.57;78.16;96549.56;5090492;27;20884;-75
2021/07/01 11:49:46;;;;;;;0.60;0.60;;;;;;;15.45;77.95;96548.88;5070806;28;20387;-75
2021/07/01 11:52:24;;;;;;;0.50;0.50;;;;;;;15.40;77.83;96549.63;5131080;27;20151;-74
2021/07/01 11:55:03;;;;;;;0.60;0.60;;;;;;;15.36;77.76;96548.53;5131431;27;20127;-75
2021/07/01 11:57:40;;;;;;;0.82;0.80;;;;;;;15.32;77.56;96554.53;5070661;28;20375;-74
2021/07/01 12:00:18;;;;;;;0.80;0.65;;;;;;;15.23;77.08;96556.81;5131467;27;20345;-75
2021/07/01 12:02:58;;;;;;;0.70;0.70;;;;;;;15.24;77.07;96555.75;5129185;27;20174;-75
2021/07/01 12:05:41;;;;;;;0.70;0.70;;;;;;;15.34;76.91;96557.75;5131410;27;20382;-75
2021/07/01 12:08:19;;;;;;;0.60;0.60;;;;;;;15.42;77.16;96559.97;5101391;27;20366;-75
2021/07/01 12:11:05;;;;;;;0.57;0.57;;;;;;;15.49;75.85;96565.84;5103371;27;20466;-74
2021/07/01 12:13:54;;;;;;;0.50;0.50;;;;;;;15.62;76.44;96562.03;5070292;28;20892;-74
2021/07/01 12:16:41;;;;;;;1.00;0.55;;;;;;;15.72;74.94;96562.19;5090489;28;20854;-75
2021/07/01 12:19:18;;;;;;;0.47;0.47;;;;;;;15.88;75.69;96565.81;5126437;27;20393;-75
2021/07/01 12:21:56;;;;;;;1.30;0.60;;;;;;;16.06;75.08;96556.72;5131738;27;20341;-75
2021/07/01 12:24:34;;;;;;;0.60;0.60;;;;;;;16.22;75.13;96555.81;5131359;27;20116;-75
2021/07/01 12:27:29;;;;;;;0.60;0.60;;;;;;;16.33;72.58;96556.69;5152072;27;20138;-75
2021/07/01 12:30:07;;;;;;;0.50;0.50;;;;;;;16.39;73.98;96560.19;5110827;27;20461;-74
2021/07/01 12:32:45;;;;;;;0.65;0.65;;;;;;;16.57;74.10;96562.47;5131507;27;20127;-74